F/v_l'omerta — FHXG — position and weather

sailwx.info

Track history (hours):
 
Tides and Currents Weather Stations Pressure Air Temp Water Temp Dewpoint Dewpoint Depression Visibility Wind Speed Wind Dir Waves Ship Positions

F/v_l'omerta

Last reported at 2016-Feb-08 22:33 UTC. Time now 2016-Feb-08 23:19 UTC.
Position N 46°30' W 001°48'.

Length 18 m.

Type: Fishing. MMSI: 227903000.

Date/timePositionNaut miles runAvg speedWind from/ knotsBaromVisibWave heightAir tempDewpointWater temp
2016-Feb-08 22:33N 46°30' W 001°48'0 0.0
2016-Feb-08 21:33N 46°30' W 001°48'0 0.0
2016-Feb-08 20:33N 46°30' W 001°48'0 0.0
2016-Feb-08 19:33N 46°30' W 001°48'0 0.0
2016-Feb-08 18:33N 46°30' W 001°48'0 0.0
2016-Feb-08 17:33N 46°30' W 001°48'0 0.0
2016-Feb-08 16:33N 46°30' W 001°48'0 0.0
2016-Feb-08 15:33N 46°30' W 001°48'0 0.0
2016-Feb-08 14:33N 46°30' W 001°48'0 0.0
2016-Feb-08 13:33N 46°30' W 001°48'0 0.0
2016-Feb-08 12:33N 46°30' W 001°48'0 0.0
2016-Feb-08 11:33N 46°30' W 001°48'0 0.0
2016-Feb-08 10:33N 46°30' W 001°48'0 0.0
2016-Feb-08 09:33N 46°30' W 001°48'0 0.0
2016-Feb-08 08:33N 46°30' W 001°48'0 0.0
2016-Feb-08 07:33N 46°30' W 001°48'0 0.0
2016-Feb-06 20:33N 46°30' W 001°48'0 0.0
2016-Feb-06 19:33N 46°30' W 001°48'0 0.0
2016-Feb-06 18:33N 46°30' W 001°48'0 0.0
2016-Feb-06 17:33N 46°30' W 001°48'1 1.1
2016-Feb-06 16:33N 46°29' W 001°47'7 7.4
2016-Feb-06 15:33N 46°22' W 001°53'5 4.5
2016-Feb-06 14:32N 46°18' W 001°55'3 3.4
2016-Feb-06 13:31N 46°15' W 001°52'3 2.8
2016-Feb-06 12:33N 46°16' W 001°49'3 2.8
2016-Feb-06 11:33N 46°18' W 001°46'1 1.3
2016-Feb-06 10:33N 46°18' W 001°44'4 3.7
2016-Feb-06 09:33N 46°15' W 001°43'3 2.3
2016-Feb-06 08:07N 46°12' W 001°46'2 3.3
2016-Feb-06 07:33N 46°13' W 001°48'3 2.5
2016-Feb-06 06:33N 46°14' W 001°51'3 2.6
2016-Feb-06 05:33N 46°16' W 001°49'2 2.4
2016-Feb-06 04:31N 46°15' W 001°46'3 3.1
2016-Feb-06 03:33N 46°13' W 001°49'3 2.8
2016-Feb-06 02:33N 46°15' W 001°52'3 2.8
2016-Feb-06 01:33N 46°17' W 001°54'3 3.5
2016-Feb-06 00:33N 46°20' W 001°57'3 3.4
2016-Feb-05 23:33N 46°23' W 001°59'3 2.6
2016-Feb-05 22:33N 46°26' W 001°59'2 2.1
2016-Feb-05 21:33N 46°25' W 001°56'3 3.2
2016-Feb-05 20:33N 46°22' W 001°54'3 3.4
2016-Feb-05 19:33N 46°19' W 001°53'3 3.4
2016-Feb-05 18:33N 46°16' W 001°51'3 2.9
2016-Feb-05 17:33N 46°16' W 001°47'3 2.5
2016-Feb-05 16:33N 46°14' W 001°47'3 2.8
2016-Feb-05 15:33N 46°14' W 001°51'3 2.7
2016-Feb-05 14:33N 46°16' W 001°49'2 2.3
2016-Feb-05 13:33N 46°14' W 001°48'3 2.8
2016-Feb-05 12:33N 46°14' W 001°52'3 2.6
2016-Feb-05 11:33N 46°16' W 001°49'4 3.3
2016-Feb-05 10:24N 46°18' W 001°45'2 2.2
2016-Feb-05 09:33N 46°16' W 001°44'4 1.6
2016-Feb-05 07:14N 46°13' W 001°46'2 3.4
2016-Feb-05 06:33N 46°15' W 001°48'2 1.7
2016-Feb-05 05:33N 46°15' W 001°50'3 2.5
2016-Feb-05 04:33N 46°14' W 001°47'4 3.5
2016-Feb-05 03:33N 46°17' W 001°49'4 3.5
2016-Feb-05 02:33N 46°20' W 001°52'6 5.7
2016-Feb-05 01:33N 46°26' W 001°49'4 4.4
2016-Feb-05 00:33N 46°30' W 001°47'2 1.8
2016-Feb-04 23:33N 46°28' W 001°48'7 7.2
2016-Feb-04 22:33N 46°22' W 001°54'3 3.3
2016-Feb-04 21:33N 46°25' W 001°57'3 3.4
2016-Feb-04 20:33N 46°26' W 002°02'4 3.5
2016-Feb-04 19:33N 46°24' W 002°06'3 3.1
2016-Feb-04 18:33N 46°23' W 002°11'11 0.7
2016-Feb-04 04:11N 46°29' W 002°24'16 0.8
2016-Feb-03 08:13N 46°20' W 002°04'6 9.0
2016-Feb-03 07:33N 46°23' W 001°57'9 8.6
2016-Feb-03 06:33N 46°28' W 001°47'2 1.5
2016-Feb-03 05:33N 46°30' W 001°47'0 0.0
2016-Feb-03 04:33N 46°30' W 001°47'0 0.0
2016-Feb-03 03:33N 46°30' W 001°47'0 0.0
2016-Feb-03 02:33N 46°30' W 001°47'0 0.0
2016-Feb-03 01:33N 46°30' W 001°47'0 0.0
2016-Feb-03 00:33N 46°30' W 001°47'0 0.0
2016-Feb-02 23:33N 46°30' W 001°47'0 0.0
2016-Feb-02 22:33N 46°30' W 001°47'0 0.0
2016-Feb-02 21:33N 46°30' W 001°47'0 0.0
2016-Feb-02 20:33N 46°30' W 001°47'0 0.0
2016-Feb-02 19:33N 46°30' W 001°47'0 0.0
2016-Feb-02 18:33N 46°30' W 001°47'0 0.0
2016-Feb-02 17:33N 46°30' W 001°47'0 0.0
2016-Feb-02 16:33N 46°30' W 001°47'0 0.0
2016-Feb-02 15:33N 46°30' W 001°47'0 0.0
2016-Feb-02 14:33N 46°30' W 001°47'0 0.0
2016-Feb-02 13:33N 46°30' W 001°47'0 0.0
2016-Feb-02 12:33N 46°30' W 001°47'0 0.0
2016-Feb-02 11:33N 46°30' W 001°47'0 0.0
2016-Feb-02 10:33N 46°30' W 001°47'0 0.0
2016-Feb-02 09:33N 46°30' W 001°47'0 0.0
2016-Feb-02 08:33N 46°30' W 001°47'0 0.1
2016-Feb-02 07:33N 46°30' W 001°47'0 0.0
2016-Feb-02 06:33N 46°30' W 001°47'0 0.1
2016-Feb-02 05:33N 46°30' W 001°47'0 0.0
2016-Feb-02 04:33N 46°30' W 001°47'0 0.0
2016-Feb-02 03:33N 46°30' W 001°47'0 0.0
2016-Feb-02 02:33N 46°30' W 001°47'0 0.0
2016-Feb-02 01:33N 46°30' W 001°47'0 0.0
2016-Feb-02 00:33N 46°30' W 001°47'0 0.0
2016-Feb-01 23:33N 46°30' W 001°47'0 0.0
2016-Feb-01 22:33N 46°30' W 001°47'0 0.0
2016-Feb-01 21:33N 46°30' W 001°47'0 0.0
2016-Feb-01 20:33N 46°30' W 001°47'0 0.0
2016-Feb-01 19:33N 46°30' W 001°47'0 0.0
2016-Feb-01 18:33N 46°30' W 001°47'0 0.0
2016-Feb-01 17:33N 46°30' W 001°47'0 0.0
2016-Feb-01 16:33N 46°30' W 001°47'0 0.0
2016-Feb-01 15:33N 46°30' W 001°47'0 0.0
2016-Feb-01 14:33N 46°30' W 001°47'0 0.0
2016-Feb-01 13:33N 46°30' W 001°47'0 0.0
2016-Feb-01 12:33N 46°30' W 001°47'0 0.0
2016-Feb-01 11:33N 46°30' W 001°47'0 0.0
2016-Feb-01 10:33N 46°30' W 001°47'0 0.0
2016-Feb-01 09:33N 46°30' W 001°47'0 0.0
2016-Feb-01 08:33N 46°30' W 001°47'0 0.0
2016-Feb-01 07:33N 46°30' W 001°47'0 0.0
2016-Feb-01 06:33N 46°30' W 001°47'0 0.0
2016-Feb-01 05:33N 46°30' W 001°47'0 0.0
2016-Feb-01 04:33N 46°30' W 001°47'0 0.0
2016-Feb-01 03:33N 46°30' W 001°47'0 0.0
2016-Feb-01 02:33N 46°30' W 001°47'0 0.0
2016-Feb-01 01:33N 46°30' W 001°47'0 0.0
2016-Feb-01 00:33N 46°30' W 001°47'0 0.0
2016-Jan-31 23:33N 46°30' W 001°47'0 0.0
2016-Jan-31 22:33N 46°30' W 001°47'0 0.0
2016-Jan-31 21:33N 46°30' W 001°47'0 0.0
2016-Jan-31 20:33N 46°30' W 001°47'0 0.0
2016-Jan-31 19:33N 46°30' W 001°47'0 0.0
2016-Jan-31 18:33N 46°30' W 001°47'0 0.0
2016-Jan-31 17:33N 46°30' W 001°47'0 0.0
2016-Jan-31 16:33N 46°30' W 001°47'0 0.0
2016-Jan-31 15:33N 46°30' W 001°47'0 0.0
2016-Jan-31 14:33N 46°30' W 001°47'0 0.0
2016-Jan-31 13:33N 46°30' W 001°47'0 0.0
2016-Jan-31 12:33N 46°30' W 001°47'0 0.0
2016-Jan-31 11:33N 46°30' W 001°47'0 0.0
2016-Jan-31 10:33N 46°30' W 001°47'0 0.0
2016-Jan-31 09:33N 46°30' W 001°47'0 0.0
2016-Jan-31 08:33N 46°30' W 001°47'0 0.0
2016-Jan-31 07:33N 46°30' W 001°47'0 0.0
2016-Jan-31 06:33N 46°30' W 001°47'0 0.0
2016-Jan-31 05:33N 46°30' W 001°47'0 0.0
2016-Jan-31 04:33N 46°30' W 001°47'0 0.0
2016-Jan-31 03:33N 46°30' W 001°47'0 0.0
2016-Jan-31 02:33N 46°30' W 001°47'0 0.0
2016-Jan-31 01:33N 46°30' W 001°47'0 0.0
2016-Jan-31 00:33N 46°30' W 001°47'0 0.0
2016-Jan-30 23:33N 46°30' W 001°47'0 0.0
2016-Jan-30 22:33N 46°30' W 001°47'0 0.0
2016-Jan-30 21:33N 46°30' W 001°47'0 0.0
2016-Jan-30 20:33N 46°30' W 001°47'0 0.0
2016-Jan-30 19:33N 46°30' W 001°47'0 0.0
2016-Jan-30 18:33N 46°30' W 001°47'0 0.0
2016-Jan-30 17:33N 46°30' W 001°47'0 0.0
2016-Jan-30 16:33N 46°30' W 001°47'0 0.0
2016-Jan-30 15:33N 46°30' W 001°47'0 0.0
2016-Jan-30 14:33N 46°30' W 001°47'0 0.0
2016-Jan-30 13:33N 46°30' W 001°47'0 0.0
2016-Jan-30 12:33N 46°30' W 001°47'0 0.0
2016-Jan-30 11:33N 46°30' W 001°47'0 0.0
2016-Jan-30 10:33N 46°30' W 001°47'0 0.0
2016-Jan-30 09:33N 46°30' W 001°47'0 0.0
2016-Jan-30 08:33N 46°30' W 001°47'0 0.0
2016-Jan-30 07:33N 46°30' W 001°47'0 0.0
2016-Jan-30 06:33N 46°30' W 001°47'0 0.0
2016-Jan-30 05:33N 46°30' W 001°47'0 0.0
2016-Jan-30 04:33N 46°30' W 001°47'0 0.0
2016-Jan-30 03:33N 46°30' W 001°47'0 0.0
2016-Jan-30 02:33N 46°30' W 001°47'0 0.0
2016-Jan-30 01:33N 46°30' W 001°47'0 0.0
2016-Jan-30 00:33N 46°30' W 001°47'0 0.0
2016-Jan-29 23:33N 46°30' W 001°47'  
Track history (hours):
 
Tides and Currents Weather Stations Pressure Air Temp Water Temp Dewpoint Dewpoint Depression Visibility Wind Speed Wind Dir Waves Ship Positions

F/v_l'omerta

Last reported at 2016-Feb-08 22:33 UTC. Time now 2016-Feb-08 23:19 UTC.
Position N 46°30' W 001°48'.

Length 18 m.

Type: Fishing. MMSI: 227903000.

Date/timePositionNaut miles runAvg speedWind from/ knotsBaromVisibWave heightAir tempDewpointWater temp
2016-Feb-08 22:33N 46°30' W 001°48'0 0.0
2016-Feb-08 21:33N 46°30' W 001°48'0 0.0
2016-Feb-08 20:33N 46°30' W 001°48'0 0.0
2016-Feb-08 19:33N 46°30' W 001°48'0 0.0
2016-Feb-08 18:33N 46°30' W 001°48'0 0.0
2016-Feb-08 17:33N 46°30' W 001°48'0 0.0
2016-Feb-08 16:33N 46°30' W 001°48'0 0.0
2016-Feb-08 15:33N 46°30' W 001°48'0 0.0
2016-Feb-08 14:33N 46°30' W 001°48'0 0.0
2016-Feb-08 13:33N 46°30' W 001°48'0 0.0
2016-Feb-08 12:33N 46°30' W 001°48'0 0.0
2016-Feb-08 11:33N 46°30' W 001°48'0 0.0
2016-Feb-08 10:33N 46°30' W 001°48'0 0.0
2016-Feb-08 09:33N 46°30' W 001°48'0 0.0
2016-Feb-08 08:33N 46°30' W 001°48'0 0.0
2016-Feb-08 07:33N 46°30' W 001°48'0 0.0
2016-Feb-06 20:33N 46°30' W 001°48'0 0.0
2016-Feb-06 19:33N 46°30' W 001°48'0 0.0
2016-Feb-06 18:33N 46°30' W 001°48'0 0.0
2016-Feb-06 17:33N 46°30' W 001°48'1 1.1
2016-Feb-06 16:33N 46°29' W 001°47'7 7.4
2016-Feb-06 15:33N 46°22' W 001°53'5 4.5
2016-Feb-06 14:32N 46°18' W 001°55'3 3.4
2016-Feb-06 13:31N 46°15' W 001°52'3 2.8
2016-Feb-06 12:33N 46°16' W 001°49'3 2.8
2016-Feb-06 11:33N 46°18' W 001°46'1 1.3
2016-Feb-06 10:33N 46°18' W 001°44'4 3.7
2016-Feb-06 09:33N 46°15' W 001°43'3 2.3
2016-Feb-06 08:07N 46°12' W 001°46'2 3.3
2016-Feb-06 07:33N 46°13' W 001°48'3 2.5
2016-Feb-06 06:33N 46°14' W 001°51'3 2.6
2016-Feb-06 05:33N 46°16' W 001°49'2 2.4
2016-Feb-06 04:31N 46°15' W 001°46'3 3.1
2016-Feb-06 03:33N 46°13' W 001°49'3 2.8
2016-Feb-06 02:33N 46°15' W 001°52'3 2.8
2016-Feb-06 01:33N 46°17' W 001°54'3 3.5
2016-Feb-06 00:33N 46°20' W 001°57'3 3.4
2016-Feb-05 23:33N 46°23' W 001°59'3 2.6
2016-Feb-05 22:33N 46°26' W 001°59'2 2.1
2016-Feb-05 21:33N 46°25' W 001°56'3 3.2
2016-Feb-05 20:33N 46°22' W 001°54'3 3.4
2016-Feb-05 19:33N 46°19' W 001°53'3 3.4
2016-Feb-05 18:33N 46°16' W 001°51'3 2.9
2016-Feb-05 17:33N 46°16' W 001°47'3 2.5
2016-Feb-05 16:33N 46°14' W 001°47'3 2.8
2016-Feb-05 15:33N 46°14' W 001°51'3 2.7
2016-Feb-05 14:33N 46°16' W 001°49'2 2.3
2016-Feb-05 13:33N 46°14' W 001°48'3 2.8
2016-Feb-05 12:33N 46°14' W 001°52'3 2.6
2016-Feb-05 11:33N 46°16' W 001°49'4 3.3
2016-Feb-05 10:24N 46°18' W 001°45'2 2.2
2016-Feb-05 09:33N 46°16' W 001°44'4 1.6
2016-Feb-05 07:14N 46°13' W 001°46'2 3.4
2016-Feb-05 06:33N 46°15' W 001°48'2 1.7
2016-Feb-05 05:33N 46°15' W 001°50'3 2.5
2016-Feb-05 04:33N 46°14' W 001°47'4 3.5
2016-Feb-05 03:33N 46°17' W 001°49'4 3.5
2016-Feb-05 02:33N 46°20' W 001°52'6 5.7
2016-Feb-05 01:33N 46°26' W 001°49'4 4.4
2016-Feb-05 00:33N 46°30' W 001°47'2 1.8
2016-Feb-04 23:33N 46°28' W 001°48'7 7.2
2016-Feb-04 22:33N 46°22' W 001°54'3 3.3
2016-Feb-04 21:33N 46°25' W 001°57'3 3.4
2016-Feb-04 20:33N 46°26' W 002°02'4 3.5
2016-Feb-04 19:33N 46°24' W 002°06'3 3.1
2016-Feb-04 18:33N 46°23' W 002°11'11 0.7
2016-Feb-04 04:11N 46°29' W 002°24'16 0.8
2016-Feb-03 08:13N 46°20' W 002°04'6 9.0
2016-Feb-03 07:33N 46°23' W 001°57'9 8.6
2016-Feb-03 06:33N 46°28' W 001°47'2 1.5
2016-Feb-03 05:33N 46°30' W 001°47'0 0.0
2016-Feb-03 04:33N 46°30' W 001°47'0 0.0
2016-Feb-03 03:33N 46°30' W 001°47'0 0.0
2016-Feb-03 02:33N 46°30' W 001°47'0 0.0
2016-Feb-03 01:33N 46°30' W 001°47'0 0.0
2016-Feb-03 00:33N 46°30' W 001°47'0 0.0
2016-Feb-02 23:33N 46°30' W 001°47'0 0.0
2016-Feb-02 22:33N 46°30' W 001°47'0 0.0
2016-Feb-02 21:33N 46°30' W 001°47'0 0.0
2016-Feb-02 20:33N 46°30' W 001°47'0 0.0
2016-Feb-02 19:33N 46°30' W 001°47'0 0.0
2016-Feb-02 18:33N 46°30' W 001°47'0 0.0
2016-Feb-02 17:33N 46°30' W 001°47'0 0.0
2016-Feb-02 16:33N 46°30' W 001°47'0 0.0
2016-Feb-02 15:33N 46°30' W 001°47'0 0.0
2016-Feb-02 14:33N 46°30' W 001°47'0 0.0
2016-Feb-02 13:33N 46°30' W 001°47'0 0.0
2016-Feb-02 12:33N 46°30' W 001°47'0 0.0
2016-Feb-02 11:33N 46°30' W 001°47'0 0.0
2016-Feb-02 10:33N 46°30' W 001°47'0 0.0
2016-Feb-02 09:33N 46°30' W 001°47'0 0.0
2016-Feb-02 08:33N 46°30' W 001°47'0 0.1
2016-Feb-02 07:33N 46°30' W 001°47'0 0.0
2016-Feb-02 06:33N 46°30' W 001°47'0 0.1
2016-Feb-02 05:33N 46°30' W 001°47'0 0.0
2016-Feb-02 04:33N 46°30' W 001°47'0 0.0
2016-Feb-02 03:33N 46°30' W 001°47'0 0.0
2016-Feb-02 02:33N 46°30' W 001°47'0 0.0
2016-Feb-02 01:33N 46°30' W 001°47'0 0.0
2016-Feb-02 00:33N 46°30' W 001°47'0 0.0
2016-Feb-01 23:33N 46°30' W 001°47'0 0.0
2016-Feb-01 22:33N 46°30' W 001°47'0 0.0
2016-Feb-01 21:33N 46°30' W 001°47'0 0.0
2016-Feb-01 20:33N 46°30' W 001°47'0 0.0
2016-Feb-01 19:33N 46°30' W 001°47'0 0.0
2016-Feb-01 18:33N 46°30' W 001°47'0 0.0
2016-Feb-01 17:33N 46°30' W 001°47'0 0.0
2016-Feb-01 16:33N 46°30' W 001°47'0 0.0
2016-Feb-01 15:33N 46°30' W 001°47'0 0.0
2016-Feb-01 14:33N 46°30' W 001°47'0 0.0
2016-Feb-01 13:33N 46°30' W 001°47'0 0.0
2016-Feb-01 12:33N 46°30' W 001°47'0 0.0
2016-Feb-01 11:33N 46°30' W 001°47'0 0.0
2016-Feb-01 10:33N 46°30' W 001°47'0 0.0
2016-Feb-01 09:33N 46°30' W 001°47'0 0.0
2016-Feb-01 08:33N 46°30' W 001°47'0 0.0
2016-Feb-01 07:33N 46°30' W 001°47'0 0.0
2016-Feb-01 06:33N 46°30' W 001°47'0 0.0
2016-Feb-01 05:33N 46°30' W 001°47'0 0.0
2016-Feb-01 04:33N 46°30' W 001°47'0 0.0
2016-Feb-01 03:33N 46°30' W 001°47'0 0.0
2016-Feb-01 02:33N 46°30' W 001°47'0 0.0
2016-Feb-01 01:33N 46°30' W 001°47'0 0.0
2016-Feb-01 00:33N 46°30' W 001°47'0 0.0
2016-Jan-31 23:33N 46°30' W 001°47'0 0.0
2016-Jan-31 22:33N 46°30' W 001°47'0 0.0
2016-Jan-31 21:33N 46°30' W 001°47'0 0.0
2016-Jan-31 20:33N 46°30' W 001°47'0 0.0
2016-Jan-31 19:33N 46°30' W 001°47'0 0.0
2016-Jan-31 18:33N 46°30' W 001°47'0 0.0
2016-Jan-31 17:33N 46°30' W 001°47'0 0.0
2016-Jan-31 16:33N 46°30' W 001°47'0 0.0
2016-Jan-31 15:33N 46°30' W 001°47'0 0.0
2016-Jan-31 14:33N 46°30' W 001°47'0 0.0
2016-Jan-31 13:33N 46°30' W 001°47'0 0.0
2016-Jan-31 12:33N 46°30' W 001°47'0 0.0
2016-Jan-31 11:33N 46°30' W 001°47'0 0.0
2016-Jan-31 10:33N 46°30' W 001°47'0 0.0
2016-Jan-31 09:33N 46°30' W 001°47'0 0.0
2016-Jan-31 08:33N 46°30' W 001°47'0 0.0
2016-Jan-31 07:33N 46°30' W 001°47'0 0.0
2016-Jan-31 06:33N 46°30' W 001°47'0 0.0
2016-Jan-31 05:33N 46°30' W 001°47'0 0.0
2016-Jan-31 04:33N 46°30' W 001°47'0 0.0
2016-Jan-31 03:33N 46°30' W 001°47'0 0.0
2016-Jan-31 02:33N 46°30' W 001°47'0 0.0
2016-Jan-31 01:33N 46°30' W 001°47'0 0.0
2016-Jan-31 00:33N 46°30' W 001°47'0 0.0
2016-Jan-30 23:33N 46°30' W 001°47'0 0.0
2016-Jan-30 22:33N 46°30' W 001°47'0 0.0
2016-Jan-30 21:33N 46°30' W 001°47'0 0.0
2016-Jan-30 20:33N 46°30' W 001°47'0 0.0
2016-Jan-30 19:33N 46°30' W 001°47'0 0.0
2016-Jan-30 18:33N 46°30' W 001°47'0 0.0
2016-Jan-30 17:33N 46°30' W 001°47'0 0.0
2016-Jan-30 16:33N 46°30' W 001°47'0 0.0
2016-Jan-30 15:33N 46°30' W 001°47'0 0.0
2016-Jan-30 14:33N 46°30' W 001°47'0 0.0
2016-Jan-30 13:33N 46°30' W 001°47'0 0.0
2016-Jan-30 12:33N 46°30' W 001°47'0 0.0
2016-Jan-30 11:33N 46°30' W 001°47'0 0.0
2016-Jan-30 10:33N 46°30' W 001°47'0 0.0
2016-Jan-30 09:33N 46°30' W 001°47'0 0.0
2016-Jan-30 08:33N 46°30' W 001°47'0 0.0
2016-Jan-30 07:33N 46°30' W 001°47'0 0.0
2016-Jan-30 06:33N 46°30' W 001°47'0 0.0
2016-Jan-30 05:33N 46°30' W 001°47'0 0.0
2016-Jan-30 04:33N 46°30' W 001°47'0 0.0
2016-Jan-30 03:33N 46°30' W 001°47'0 0.0
2016-Jan-30 02:33N 46°30' W 001°47'0 0.0
2016-Jan-30 01:33N 46°30' W 001°47'0 0.0
2016-Jan-30 00:33N 46°30' W 001°47'0 0.0
2016-Jan-29 23:33N 46°30' W 001°47'  

Dump ship's entire track history